createdAt,value
2022-10-23T00:01:15.050Z,0.70
2022-10-23T00:03:43.643Z,0.80
2022-10-23T00:06:14.421Z,0.70
2022-10-23T00:08:43.104Z,1.30
2022-10-23T00:11:12.880Z,0.80
2022-10-23T00:13:41.222Z,1.30
2022-10-23T00:16:09.933Z,1.07
2022-10-23T00:18:38.710Z,0.80
2022-10-23T00:21:08.106Z,0.90
2022-10-23T00:23:37.625Z,0.90
2022-10-23T00:26:08.515Z,1.40
2022-10-23T00:28:36.846Z,1.10
2022-10-23T00:31:07.603Z,0.90
2022-10-23T00:33:36.983Z,1.20
2022-10-23T00:36:07.173Z,1.00
2022-10-23T00:38:35.540Z,1.00
2022-10-23T00:41:06.087Z,1.20
2022-10-23T00:43:35.019Z,0.70
2022-10-23T00:46:03.406Z,0.77
2022-10-23T00:48:32.181Z,1.07
2022-10-23T00:51:00.596Z,1.13
2022-10-23T00:53:30.370Z,0.90
2022-10-23T00:56:00.281Z,1.30
2022-10-23T00:58:30.351Z,0.90
2022-10-23T01:00:58.932Z,0.97
2022-10-23T01:03:31.956Z,0.87
2022-10-23T01:06:04.781Z,1.80
2022-10-23T01:08:37.214Z,1.73
2022-10-23T01:11:13.802Z,1.97
2022-10-23T01:13:46.488Z,1.80
2022-10-23T01:16:18.578Z,1.00
2022-10-23T01:18:49.897Z,1.07
2022-10-23T01:21:22.255Z,1.00
2022-10-23T01:24:05.618Z,0.80
2022-10-23T01:26:45.059Z,0.90
2022-10-23T01:29:19.881Z,0.80
2022-10-23T01:31:52.167Z,1.10
2022-10-23T01:34:24.157Z,0.80
2022-10-23T01:36:53.255Z,1.10
2022-10-23T01:39:23.737Z,0.70
2022-10-23T01:41:54.546Z,0.87
2022-10-23T01:44:28.029Z,0.87
2022-10-23T01:46:56.637Z,1.00
2022-10-23T01:49:25.397Z,0.70
2022-10-23T01:51:55.680Z,1.00
2022-10-23T01:54:26.077Z,1.03
2022-10-23T01:56:54.607Z,0.73
2022-10-23T01:59:26.932Z,0.80
2022-10-23T02:01:58.991Z,0.73
2022-10-23T02:04:31.634Z,1.10
2022-10-23T02:07:01.757Z,0.73
2022-10-23T02:09:32.003Z,0.80
2022-10-23T02:12:03.700Z,0.90
2022-10-23T02:14:41.078Z,0.80
2022-10-23T02:17:16.559Z,1.53
2022-10-23T02:19:48.882Z,0.60
2022-10-23T02:22:22.214Z,1.20
2022-10-23T02:24:53.219Z,1.27
2022-10-23T02:27:25.664Z,1.33
2022-10-23T02:30:10.929Z,1.00
2022-10-23T02:32:42.883Z,1.00
2022-10-23T02:35:12.017Z,0.80
2022-10-23T02:37:40.994Z,0.77
2022-10-23T02:40:11.572Z,0.70
2022-10-23T02:42:44.943Z,1.10
2022-10-23T02:45:19.538Z,1.03
2022-10-23T02:47:53.913Z,0.73
2022-10-23T02:50:28.348Z,1.00
2022-10-23T02:53:00.765Z,1.10
2022-10-23T02:55:36.718Z,1.30
2022-10-23T02:58:10.691Z,0.80
2022-10-23T03:00:44.356Z,1.10
2022-10-23T03:03:16.893Z,1.00
2022-10-23T03:05:46.101Z,1.17
2022-10-23T03:08:16.120Z,1.00
2022-10-23T03:10:45.169Z,0.75
2022-10-23T03:13:13.368Z,1.00
2022-10-23T03:15:43.206Z,0.97
2022-10-23T03:18:11.602Z,0.90
2022-10-23T03:20:40.096Z,0.60
2022-10-23T03:23:08.331Z,0.80
2022-10-23T03:25:36.436Z,1.27
2022-10-23T03:28:04.674Z,0.63
2022-10-23T03:30:32.753Z,0.60
2022-10-23T03:33:02.157Z,1.60
2022-10-23T03:35:30.542Z,1.00
2022-10-23T03:37:58.613Z,1.20
2022-10-23T03:40:27.113Z,1.83
2022-10-23T03:42:55.185Z,0.80
2022-10-23T03:45:23.219Z,2.70
2022-10-23T03:47:51.851Z,1.47
2022-10-23T03:50:21.450Z,1.10
2022-10-23T03:52:49.430Z,0.60
2022-10-23T03:55:18.171Z,0.67
2022-10-23T03:57:46.222Z,0.70
2022-10-23T04:00:15.345Z,0.93
2022-10-23T04:02:44.307Z,0.80
2022-10-23T04:05:17.523Z,0.60
2022-10-23T04:07:47.741Z,0.60
2022-10-23T04:10:16.126Z,0.70
2022-10-23T04:12:44.774Z,0.70
2022-10-23T04:15:19.832Z,0.67
2022-10-23T04:17:48.683Z,0.90
2022-10-23T04:20:17.091Z,0.60
2022-10-23T04:22:46.752Z,0.63
2022-10-23T04:25:17.019Z,0.97
2022-10-23T04:27:45.429Z,0.80
2022-10-23T04:30:16.704Z,1.50
2022-10-23T04:32:44.844Z,1.47
2022-10-23T04:35:13.081Z,1.43
2022-10-23T04:37:41.914Z,1.00
2022-10-23T04:40:12.231Z,1.00
2022-10-23T04:42:41.108Z,1.20
2022-10-23T04:45:10.893Z,1.03
2022-10-23T04:47:39.572Z,1.13
2022-10-23T04:50:08.546Z,1.40
2022-10-23T04:52:36.821Z,1.03
2022-10-23T04:55:13.486Z,1.20
2022-10-23T04:57:42.865Z,0.90
2022-10-23T05:00:14.220Z,1.07
2022-10-23T05:02:43.416Z,0.97
2022-10-23T05:05:12.206Z,1.00
2022-10-23T05:07:41.792Z,1.50
2022-10-23T05:10:12.649Z,0.73
2022-10-23T05:12:41.456Z,1.13
2022-10-23T05:15:12.287Z,1.47
2022-10-23T05:17:43.752Z,1.33
2022-10-23T05:20:18.403Z,0.80
2022-10-23T05:22:48.685Z,0.90
2022-10-23T05:25:18.851Z,1.00
2022-10-23T05:27:46.960Z,1.23
2022-10-23T05:30:15.813Z,2.27
2022-10-23T05:32:44.560Z,2.30
2022-10-23T05:35:19.489Z,1.30
2022-10-23T05:37:48.881Z,1.17
2022-10-23T05:40:19.228Z,14.70
2022-10-23T05:42:48.105Z,8.07
2022-10-23T05:45:17.187Z,3.50
2022-10-23T05:47:45.997Z,7.70
2022-10-23T05:50:14.908Z,4.20
2022-10-23T05:52:43.572Z,4.10
2022-10-23T05:55:11.985Z,1.30
2022-10-23T05:57:44.105Z,1.10
2022-10-23T06:00:13.776Z,1.20
2022-10-23T06:02:42.445Z,1.47
2022-10-23T06:05:10.633Z,1.30
2022-10-23T06:07:38.691Z,0.97
2022-10-23T06:10:07.133Z,1.10
2022-10-23T06:12:35.627Z,1.33
2022-10-23T06:15:07.375Z,1.20
2022-10-23T06:17:35.585Z,1.13
2022-10-23T06:20:03.649Z,1.07
2022-10-23T06:22:31.759Z,1.27
2022-10-23T06:25:00.157Z,0.97
2022-10-23T06:27:28.518Z,1.00
2022-10-23T06:29:57.027Z,1.00
2022-10-23T06:32:26.541Z,0.80
2022-10-23T06:34:59.599Z,1.10
2022-10-23T06:37:35.909Z,0.90
2022-10-23T06:40:04.240Z,1.20
2022-10-23T06:42:32.659Z,0.90
2022-10-23T06:45:04.888Z,1.47
2022-10-23T06:47:36.803Z,1.23
2022-10-23T06:50:06.020Z,1.15
2022-10-23T06:52:46.381Z,2.43
2022-10-23T06:55:15.696Z,1.23
2022-10-23T06:57:44.332Z,1.20
2022-10-23T07:00:13.956Z,1.17
2022-10-23T07:02:44.043Z,1.60
2022-10-23T07:05:21.415Z,0.90
2022-10-23T07:07:49.452Z,1.20
2022-10-23T07:10:17.867Z,1.00
2022-10-23T07:12:47.954Z,2.00
2022-10-23T07:15:16.558Z,2.90
2022-10-23T07:17:46.189Z,1.40
2022-10-23T07:20:14.251Z,1.30
2022-10-23T07:22:42.513Z,2.00
2022-10-23T07:25:11.125Z,1.60
2022-10-23T07:27:39.660Z,1.93
2022-10-23T07:30:09.300Z,1.00
2022-10-23T07:32:37.315Z,0.60
2022-10-23T07:35:08.131Z,0.50
2022-10-23T07:37:36.381Z,0.60
2022-10-23T07:40:05.055Z,2.20
2022-10-23T07:42:33.533Z,1.20
2022-10-23T07:45:01.585Z,0.80
2022-10-23T07:47:29.822Z,0.75
2022-10-23T07:49:57.984Z,0.53
2022-10-23T07:52:30.842Z,0.70
2022-10-23T07:55:01.558Z,0.73
2022-10-23T07:57:29.628Z,1.23
2022-10-23T07:59:57.705Z,1.20
2022-10-23T08:02:26.031Z,0.70
2022-10-23T08:04:54.215Z,2.07
2022-10-23T08:07:23.727Z,1.27
2022-10-23T08:09:53.240Z,1.70
2022-10-23T08:12:21.261Z,1.57
2022-10-23T08:14:49.407Z,1.00
2022-10-23T08:17:17.841Z,0.63
2022-10-23T08:19:48.454Z,0.80
2022-10-23T08:22:16.429Z,0.50
2022-10-23T08:24:44.751Z,0.70
2022-10-23T08:27:14.528Z,0.93
2022-10-23T08:29:42.565Z,2.03
2022-10-23T08:32:10.605Z,4.50
2022-10-23T08:34:38.937Z,6.00
2022-10-23T08:37:07.075Z,3.17
2022-10-23T08:39:35.393Z,0.90
2022-10-23T08:42:03.523Z,1.57
2022-10-23T08:44:35.936Z,1.50
2022-10-23T08:47:08.282Z,0.80
2022-10-23T08:49:47.487Z,0.93
2022-10-23T08:52:23.465Z,0.60
2022-10-23T08:55:15.189Z,0.57
2022-10-23T08:57:50.063Z,1.20
2022-10-23T09:00:19.748Z,0.70
2022-10-23T09:02:51.062Z,0.80
2022-10-23T09:05:21.542Z,0.67
2022-10-23T09:08:15.075Z,0.60
2022-10-23T09:10:56.784Z,0.60
2022-10-23T09:13:45.379Z,0.40
2022-10-23T09:16:20.843Z,0.60
2022-10-23T09:18:49.799Z,0.40
2022-10-23T09:21:18.208Z,0.57
2022-10-23T09:23:46.424Z,0.73
2022-10-23T09:26:16.422Z,0.70
2022-10-23T09:28:48.320Z,0.43
2022-10-23T09:31:18.382Z,0.80
2022-10-23T09:33:55.857Z,0.60
2022-10-23T09:36:26.343Z,0.40
2022-10-23T09:38:56.227Z,0.50
2022-10-23T09:41:27.777Z,0.50
2022-10-23T09:44:03.611Z,0.60
2022-10-23T09:46:43.196Z,0.50
2022-10-23T09:49:18.247Z,0.60
2022-10-23T09:51:57.910Z,0.70
2022-10-23T09:54:26.036Z,0.60
2022-10-23T09:56:56.267Z,0.50
2022-10-23T09:59:26.724Z,0.50
2022-10-23T10:01:58.069Z,0.43
2022-10-23T10:04:35.410Z,0.50
2022-10-23T10:07:05.978Z,4.57
2022-10-23T10:09:34.186Z,2.97
2022-10-23T10:12:15.959Z,3.60
2022-10-23T10:14:56.832Z,1.50
2022-10-23T10:17:34.785Z,2.70
2022-10-23T10:20:20.426Z,3.50
2022-10-23T10:22:53.915Z,2.83
2022-10-23T10:25:25.256Z,3.00
2022-10-23T10:28:00.674Z,2.67
2022-10-23T10:30:35.595Z,2.93
2022-10-23T10:33:09.401Z,5.60
2022-10-23T10:35:44.223Z,4.70
2022-10-23T10:38:38.157Z,10.67
2022-10-23T10:41:44.602Z,0.70
2022-10-23T10:44:43.652Z,3.63
2022-10-23T10:47:19.975Z,3.70
2022-10-23T10:50:01.203Z,1.40
2022-10-23T10:52:35.485Z,1.73
2022-10-23T10:55:11.997Z,0.70
2022-10-23T10:57:44.137Z,4.80
2022-10-23T11:00:16.291Z,1.17
2022-10-23T11:02:47.318Z,1.80
2022-10-23T11:05:23.189Z,0.70
2022-10-23T11:07:57.601Z,0.60
2022-10-23T11:10:26.210Z,0.47
2022-10-23T11:12:54.368Z,0.47
2022-10-23T11:15:24.810Z,0.40
2022-10-23T11:17:56.626Z,0.53
2022-10-23T11:20:50.753Z,0.60
2022-10-23T11:23:37.726Z,0.50
2022-10-23T11:26:20.194Z,0.43
2022-10-23T11:29:06.759Z,0.50
2022-10-23T11:31:40.098Z,0.50
2022-10-23T11:34:28.520Z,0.50
2022-10-23T11:37:01.365Z,0.63
2022-10-23T11:39:31.280Z,0.70
2022-10-23T11:42:01.258Z,0.47
2022-10-23T11:44:41.762Z,0.50
2022-10-23T11:47:29.605Z,0.50
2022-10-23T11:50:18.972Z,0.40
2022-10-23T11:53:14.779Z,0.40
2022-10-23T11:55:59.041Z,0.57
2022-10-23T11:58:32.316Z,0.70
2022-10-23T12:01:05.244Z,0.60
2022-10-23T12:03:51.114Z,0.83
2022-10-23T12:06:24.489Z,0.40
2022-10-23T12:08:57.804Z,0.40
2022-10-23T12:11:28.180Z,0.50
2022-10-23T12:13:56.501Z,0.50
2022-10-23T12:16:35.846Z,0.50
2022-10-23T12:19:19.781Z,0.67
2022-10-23T12:21:48.185Z,0.60
2022-10-23T12:24:39.729Z,0.50
2022-10-23T12:27:32.777Z,0.60
2022-10-23T12:30:19.983Z,0.90
2022-10-23T12:33:10.362Z,0.50
2022-10-23T12:36:08.809Z,0.70
2022-10-23T12:38:45.317Z,0.70
2022-10-23T12:41:17.006Z,0.63
2022-10-23T12:43:50.832Z,0.57
2022-10-23T12:46:29.953Z,0.87
2022-10-23T12:49:00.406Z,0.60
2022-10-23T12:51:30.580Z,0.60
2022-10-23T12:53:59.264Z,0.70
2022-10-23T12:56:35.370Z,0.50
2022-10-23T12:59:04.133Z,0.60
2022-10-23T13:01:34.414Z,0.70
2022-10-23T13:04:09.197Z,0.57
2022-10-23T13:06:38.248Z,0.80
2022-10-23T13:09:07.887Z,0.80
2022-10-23T13:11:37.928Z,0.80
2022-10-23T13:14:13.176Z,0.70
2022-10-23T13:16:41.649Z,3.10
2022-10-23T13:19:24.004Z,2.20
2022-10-23T13:21:52.395Z,2.17
2022-10-23T13:24:21.791Z,1.57
2022-10-23T13:26:51.395Z,0.87
2022-10-23T13:29:22.439Z,0.70
2022-10-23T13:31:51.341Z,1.20
2022-10-23T13:34:24.606Z,1.40
2022-10-23T13:37:24.248Z,0.70
2022-10-23T13:40:01.696Z,0.87
2022-10-23T13:42:31.103Z,0.50
2022-10-23T13:44:59.483Z,0.67
2022-10-23T13:47:27.720Z,0.80
2022-10-23T13:49:55.741Z,2.50
2022-10-23T13:52:24.530Z,1.73
2022-10-23T13:54:52.638Z,1.30
2022-10-23T13:57:20.890Z,0.83
2022-10-23T13:59:50.268Z,0.93
2022-10-23T14:02:21.186Z,1.00
2022-10-23T14:04:50.036Z,0.83
2022-10-23T14:07:18.167Z,0.80
2022-10-23T14:09:46.334Z,0.87
2022-10-23T14:12:14.452Z,0.80
2022-10-23T14:14:42.691Z,0.97
2022-10-23T14:17:12.286Z,0.50
2022-10-23T14:19:40.460Z,0.80
2022-10-23T14:22:08.510Z,0.77
2022-10-23T14:24:36.904Z,0.60
2022-10-23T14:27:05.269Z,0.70
2022-10-23T14:29:33.758Z,0.60
2022-10-23T14:32:01.929Z,0.47
2022-10-23T14:34:31.360Z,0.40
2022-10-23T14:37:14.897Z,0.50
2022-10-23T14:39:47.477Z,0.60
2022-10-23T14:42:17.786Z,1.13
2022-10-23T14:44:45.939Z,0.57
2022-10-23T14:47:14.009Z,0.60
2022-10-23T14:49:44.111Z,0.40
2022-10-23T14:52:12.629Z,0.70
2022-10-23T14:54:40.893Z,0.60
2022-10-23T14:57:09.145Z,0.50
2022-10-23T14:59:37.289Z,0.57
2022-10-23T15:02:05.745Z,0.60
2022-10-23T15:04:33.984Z,0.80
2022-10-23T15:07:03.514Z,0.77
2022-10-23T15:09:34.898Z,0.60
2022-10-23T15:12:05.222Z,0.70
2022-10-23T15:14:33.913Z,0.83
2022-10-23T15:17:02.160Z,3.83
2022-10-23T15:19:30.377Z,3.70
2022-10-23T15:21:58.732Z,4.30
2022-10-23T15:24:28.123Z,9.67
2022-10-23T15:26:57.214Z,1.07
2022-10-23T15:29:25.380Z,11.80
2022-10-23T15:31:56.074Z,6.40
2022-10-23T15:34:26.843Z,1.00
2022-10-23T15:36:55.508Z,1.50
2022-10-23T15:39:25.289Z,2.80
2022-10-23T15:41:56.864Z,1.50
2022-10-23T15:44:26.780Z,10.50
2022-10-23T15:46:56.988Z,2.80
2022-10-23T15:49:29.361Z,4.73
2022-10-23T15:51:57.516Z,75.77
2022-10-23T15:54:28.145Z,50.07
2022-10-23T15:57:00.290Z,92.40
2022-10-23T15:59:28.755Z,87.40
2022-10-23T16:01:57.238Z,30.57
2022-10-23T16:04:25.438Z,33.47
2022-10-23T16:06:53.630Z,21.97
2022-10-23T16:09:21.782Z,3.23
2022-10-23T16:11:49.948Z,24.83
2022-10-23T16:14:19.414Z,13.20
2022-10-23T16:16:47.590Z,2.77
2022-10-23T16:19:15.661Z,1.80
2022-10-23T16:21:43.799Z,5.40
2022-10-23T16:24:12.359Z,1.60
2022-10-23T16:26:41.110Z,0.90
2022-10-23T16:29:10.437Z,1.40
2022-10-23T16:31:39.901Z,1.03
2022-10-23T16:34:08.381Z,1.10
2022-10-23T16:36:39.038Z,2.80
2022-10-23T16:39:08.156Z,3.70
2022-10-23T16:41:36.329Z,4.80
2022-10-23T16:44:04.772Z,3.93
2022-10-23T16:46:34.101Z,1.87
2022-10-23T16:49:06.211Z,5.00
2022-10-23T16:51:34.558Z,11.90
2022-10-23T16:54:03.097Z,19.90
2022-10-23T16:56:31.891Z,3.60
2022-10-23T16:59:00.767Z,29.13
2022-10-23T17:01:30.676Z,23.17
2022-10-23T17:03:59.011Z,18.90
2022-10-23T17:06:30.150Z,6.40
2022-10-23T17:08:58.585Z,26.17
2022-10-23T17:11:28.537Z,54.80
2022-10-23T17:13:59.894Z,48.57
2022-10-23T17:16:29.828Z,22.77
2022-10-23T17:18:59.753Z,14.37
2022-10-23T17:21:33.363Z,17.33
2022-10-23T17:26:30.740Z,13.10
2022-10-23T17:28:59.058Z,56.80
2022-10-23T17:31:29.530Z,46.37
2022-10-23T17:34:02.110Z,20.27
2022-10-23T17:36:35.670Z,9.20
2022-10-23T17:39:05.514Z,6.30
2022-10-23T17:41:33.691Z,7.73
2022-10-23T17:44:01.990Z,6.07
2022-10-23T17:46:30.484Z,4.67
2022-10-23T17:48:59.287Z,3.97
2022-10-23T17:51:29.633Z,2.87
2022-10-23T17:54:02.652Z,2.70
2022-10-23T17:56:32.776Z,4.43
2022-10-23T17:59:02.037Z,4.30
2022-10-23T18:01:32.522Z,3.00
2022-10-23T18:04:02.382Z,4.00
2022-10-23T18:06:33.191Z,4.17
2022-10-23T18:09:03.621Z,3.10
2022-10-23T18:11:34.041Z,2.23
2022-10-23T18:14:02.919Z,2.30
2022-10-23T18:16:31.172Z,2.00
2022-10-23T18:19:01.013Z,1.60
2022-10-23T18:21:29.615Z,2.63
2022-10-23T18:23:59.880Z,1.30
2022-10-23T18:26:32.269Z,1.77
2022-10-23T18:29:00.681Z,3.10
2022-10-23T18:31:30.329Z,2.50
2022-10-23T18:33:59.028Z,2.33
2022-10-23T18:36:29.491Z,2.97
2022-10-23T18:38:57.780Z,1.80
2022-10-23T18:41:25.929Z,1.50
2022-10-23T18:43:56.039Z,2.60
2022-10-23T18:46:24.193Z,2.33
2022-10-23T18:48:52.233Z,2.40
2022-10-23T18:51:21.716Z,2.37
2022-10-23T18:53:50.354Z,9.13
2022-10-23T18:56:22.453Z,1.93
2022-10-23T18:58:51.211Z,1.70
2022-10-23T19:01:21.269Z,1.80
2022-10-23T19:03:49.682Z,2.27
2022-10-23T19:06:18.382Z,2.23
2022-10-23T19:08:47.157Z,1.57
2022-10-23T19:11:16.541Z,1.97
2022-10-23T19:13:45.084Z,2.50
2022-10-23T19:16:16.982Z,2.53
2022-10-23T19:18:48.586Z,1.80
2022-10-23T19:21:18.186Z,2.83
2022-10-23T19:23:46.524Z,2.13
2022-10-23T19:26:14.763Z,2.27
2022-10-23T19:28:46.054Z,2.07
2022-10-23T19:31:14.490Z,2.40
2022-10-23T19:33:42.624Z,2.37
2022-10-23T19:36:14.320Z,2.40
2022-10-23T19:38:42.847Z,2.37
2022-10-23T19:41:11.147Z,2.37
2022-10-23T19:43:39.259Z,2.60
2022-10-23T19:46:11.137Z,2.23
2022-10-23T19:48:44.637Z,4.40
2022-10-23T19:51:14.446Z,4.13
2022-10-23T19:53:43.044Z,2.80
2022-10-23T19:56:12.711Z,2.73
2022-10-23T19:58:41.568Z,2.33
2022-10-23T20:01:11.727Z,2.50
2022-10-23T20:03:40.486Z,2.50
2022-10-23T20:06:12.794Z,2.50
2022-10-23T20:08:42.859Z,2.20
2022-10-23T20:11:12.850Z,2.53
2022-10-23T20:13:41.626Z,2.50
2022-10-23T20:16:09.673Z,1.97
2022-10-23T20:18:37.867Z,2.37
2022-10-23T20:21:06.053Z,2.17
2022-10-23T20:23:34.174Z,2.27
2022-10-23T20:26:08.204Z,3.07
2022-10-23T20:28:36.548Z,3.00
2022-10-23T20:31:08.980Z,2.30
2022-10-23T20:33:37.290Z,2.80
2022-10-23T20:36:07.262Z,2.80
2022-10-23T20:38:35.520Z,2.20
2022-10-23T20:41:05.864Z,2.53
2022-10-23T20:43:35.589Z,2.00
2022-10-23T20:46:09.201Z,2.03
2022-10-23T20:48:37.355Z,3.00
2022-10-23T20:51:06.037Z,1.87
2022-10-23T20:53:35.002Z,1.87
2022-10-23T20:56:07.323Z,1.63
2022-10-23T20:58:36.824Z,2.00
2022-10-23T21:01:05.974Z,1.63
2022-10-23T21:03:34.222Z,2.37
2022-10-23T21:06:05.734Z,2.43
2022-10-23T21:08:33.853Z,2.43
2022-10-23T21:11:02.206Z,2.20
2022-10-23T21:13:30.685Z,2.80
2022-10-23T21:16:00.151Z,2.50
2022-10-23T21:18:45.035Z,2.33
2022-10-23T21:21:17.085Z,2.33
2022-10-23T21:23:45.153Z,2.23
2022-10-23T21:26:13.841Z,2.47
2022-10-23T21:28:47.356Z,1.83
2022-10-23T21:31:26.144Z,2.63
2022-10-23T21:33:54.793Z,3.07
2022-10-23T21:36:24.566Z,4.60
2022-10-23T21:38:54.355Z,8.17
2022-10-23T21:41:23.886Z,3.90
2022-10-23T21:43:54.898Z,2.67
2022-10-23T21:46:25.306Z,3.03
2022-10-23T21:48:53.473Z,1.67
2022-10-23T21:51:23.762Z,2.17
2022-10-23T21:53:52.134Z,2.30
2022-10-23T21:56:29.890Z,1.90
2022-10-23T21:58:58.428Z,2.30
2022-10-23T22:01:28.378Z,2.27
2022-10-23T22:03:57.010Z,2.80
2022-10-23T22:06:29.908Z,2.57
2022-10-23T22:08:59.441Z,2.00
2022-10-23T22:11:28.357Z,3.03
2022-10-23T22:13:56.910Z,2.77
2022-10-23T22:16:25.028Z,2.90
2022-10-23T22:18:54.482Z,2.80
2022-10-23T22:21:25.172Z,2.90
2022-10-23T22:23:55.731Z,2.93
2022-10-23T22:26:25.538Z,2.80
2022-10-23T22:28:55.312Z,2.30
2022-10-23T22:31:25.705Z,2.23
2022-10-23T22:33:56.665Z,3.93
2022-10-23T22:36:25.065Z,2.83
2022-10-23T22:38:53.271Z,2.37
2022-10-23T22:41:21.530Z,2.83
2022-10-23T22:43:49.571Z,2.20
2022-10-23T22:46:20.024Z,2.90
2022-10-23T22:48:48.132Z,2.87
2022-10-23T22:51:19.885Z,2.90
2022-10-23T22:53:48.149Z,3.00
2022-10-23T22:56:18.101Z,2.47
2022-10-23T22:58:47.014Z,2.87
2022-10-23T23:01:20.319Z,2.87
2022-10-23T23:03:48.762Z,2.33
2022-10-23T23:06:19.066Z,3.23
2022-10-23T23:08:47.924Z,2.50
2022-10-23T23:11:17.807Z,3.03
2022-10-23T23:13:45.852Z,2.60
2022-10-23T23:16:19.591Z,3.23
2022-10-23T23:18:47.758Z,2.63
2022-10-23T23:21:16.070Z,2.70
2022-10-23T23:23:45.711Z,2.60
2022-10-23T23:26:14.136Z,3.03
2022-10-23T23:28:42.294Z,2.70
2022-10-23T23:31:12.788Z,3.60
2022-10-23T23:33:40.835Z,2.13
2022-10-23T23:36:10.343Z,2.60
2022-10-23T23:38:39.324Z,3.90
2022-10-23T23:41:11.583Z,2.33
2022-10-23T23:43:39.659Z,2.13
2022-10-23T23:46:07.725Z,3.53
2022-10-23T23:48:35.818Z,2.90
2022-10-23T23:51:04.178Z,3.23
2022-10-23T23:53:32.437Z,3.10
2022-10-23T23:56:00.547Z,2.53
2022-10-23T23:58:30.233Z,3.27
